Time;durP1;ratioP1;P1;durP2;ratioP2;P2;SDS_P1;SDS_P2;PMS_P1;PMS_P2;Temp;Humidity;BMP_temperature;BMP_pressure;BME280_temperature;BME280_humidity;BME280_pressure;Samples;Min_cycle;Max_cycle;Signal;HPM_P1;HPM_P2
2021/06/03 00:02:04;;;;;;;3.75;3.08;;;20.90;96.60;;;;;;5012972;28;20026;-64
2021/06/03 00:04:30;;;;;;;3.97;3.00;;;20.80;97.00;;;;;;5012838;28;20033;-64
2021/06/03 00:06:55;;;;;;;5.43;3.25;;;20.80;97.60;;;;;;5012865;28;20058;-64
2021/06/03 00:09:21;;;;;;;5.88;2.70;;;20.70;98.00;;;;;;5012855;28;20026;-64
2021/06/03 00:11:47;;;;;;;5.43;2.90;;;20.50;98.80;;;;;;5012737;28;20103;-64
2021/06/03 00:14:12;;;;;;;4.28;2.70;;;20.50;99.00;;;;;;5012732;28;20395;-64
2021/06/03 00:16:39;;;;;;;3.40;2.83;;;20.30;99.70;;;;;;5012878;28;20418;-64
2021/06/03 00:19:07;;;;;;;4.80;2.70;;;20.20;99.90;;;;;;5012713;28;20029;-64
2021/06/03 00:21:36;;;;;;;3.72;2.70;;;20.10;99.90;;;;;;5012575;28;20097;-63
2021/06/03 00:24:06;;;;;;;3.65;3.25;;;20.00;99.90;;;;;;5012625;28;20387;-65
2021/06/03 00:26:33;;;;;;;3.72;3.20;;;19.90;99.90;;;;;;5012630;28;20463;-64
2021/06/03 00:28:58;;;;;;;3.83;2.85;;;20.10;99.90;;;;;;5012530;28;20030;-64
2021/06/03 00:31:26;;;;;;;5.78;3.22;;;20.10;99.90;;;;;;5012546;28;20025;-65
2021/06/03 00:33:52;;;;;;;4.15;3.20;;;20.20;99.90;;;;;;5012518;28;20037;-64
2021/06/03 00:36:18;;;;;;;4.20;3.08;;;20.30;99.90;;;;;;5012455;28;20026;-64
2021/06/03 00:38:43;;;;;;;4.25;3.33;;;20.30;99.90;;;;;;5012407;28;20080;-64
2021/06/03 00:41:14;;;;;;;4.35;3.10;;;20.30;99.90;;;;;;5012687;28;20459;-64
2021/06/03 00:43:40;;;;;;;3.78;3.10;;;20.20;99.90;;;;;;5011312;28;20026;-63
2021/06/03 00:46:06;;;;;;;5.70;3.55;;;20.10;99.90;;;;;;5012472;28;20091;-64
2021/06/03 00:48:33;;;;;;;4.60;3.53;;;20.00;99.90;;;;;;5012333;28;20053;-64
2021/06/03 00:51:01;;;;;;;6.05;3.70;;;19.90;99.90;;;;;;5012169;28;20022;-64
2021/06/03 00:53:28;;;;;;;6.15;3.05;;;19.80;99.90;;;;;;5012379;28;20371;-64
2021/06/03 00:55:57;;;;;;;8.75;4.00;;;19.80;99.90;;;;;;5012176;28;20423;-63
2021/06/03 00:58:24;;;;;;;5.32;3.50;;;19.90;99.90;;;;;;5012315;28;20026;-64
2021/06/03 01:00:52;;;;;;;5.30;3.60;;;19.80;99.90;;;;;;5012084;28;20026;-64
2021/06/03 01:03:19;;;;;;;4.40;3.17;;;19.80;99.90;;;;;;5012166;28;20320;-63
2021/06/03 01:05:48;;;;;;;6.30;3.95;;;19.80;99.90;;;;;;5011962;28;20414;-64
2021/06/03 01:08:18;;;;;;;6.07;4.38;;;19.60;99.90;;;;;;5012048;28;20096;-63
2021/06/03 01:11:01;;;;;;;5.77;4.03;;;19.50;99.90;;;;;;5012049;28;20060;-63
2021/06/03 01:13:42;;;;;;;4.85;3.60;;;19.60;99.90;;;;;;5011944;28;20264;-63
2021/06/03 01:16:09;;;;;;;4.93;3.83;;;19.70;99.90;;;;;;5012228;28;20033;-63
2021/06/03 01:18:40;;;;;;;4.88;3.47;;;19.70;99.90;;;;;;5012015;28;20036;-63
2021/06/03 01:21:15;;;;;;;4.90;3.60;;;19.60;99.90;;;;;;5011859;28;20022;-63
2021/06/03 01:24:39;;;;;;;4.35;3.47;;;19.60;99.90;;;;;;5011263;28;20104;-63
2021/06/03 01:27:11;;;;;;;6.32;3.72;;;19.60;99.90;;;;;;4970364;28;20031;-63
2021/06/03 01:30:05;;;;;;;4.47;3.63;;;19.60;99.90;;;;;;5005239;28;20053;-63
2021/06/03 01:32:34;;;;;;;4.97;3.78;;;19.60;99.90;;;;;;5011730;28;20040;-63
2021/06/03 01:34:59;;;;;;;4.32;3.88;;;19.50;99.90;;;;;;5010480;28;20504;-63
2021/06/03 01:37:28;;;;;;;5.05;4.10;;;19.50;99.90;;;;;;5010879;28;20168;-63
2021/06/03 01:39:54;;;;;;;6.00;4.38;;;19.40;99.90;;;;;;5011380;28;20034;-63
2021/06/03 01:42:20;;;;;;;4.93;3.38;;;19.50;99.90;;;;;;5011676;28;20050;-64
2021/06/03 01:44:49;;;;;;;7.70;4.55;;;19.40;99.90;;;;;;5011602;28;20041;-64
2021/06/03 01:47:15;;;;;;;5.43;3.72;;;19.30;99.90;;;;;;5011604;28;20029;-63
2021/06/03 01:49:44;;;;;;;6.18;3.72;;;19.20;99.90;;;;;;5011675;28;20025;-63
2021/06/03 01:52:10;;;;;;;4.88;4.03;;;19.20;99.90;;;;;;5027001;28;20028;-63
2021/06/03 01:54:37;;;;;;;5.72;3.70;;;19.20;99.90;;;;;;5011505;28;20391;-62
2021/06/03 01:57:04;;;;;;;5.13;3.95;;;19.20;99.90;;;;;;5011752;28;20104;-63
2021/06/03 01:59:32;;;;;;;4.43;3.50;;;19.10;99.90;;;;;;5010485;28;20387;-63
2021/06/03 02:01:58;;;;;;;4.75;3.63;;;19.10;99.90;;;;;;5011842;28;20351;-63
2021/06/03 02:04:24;;;;;;;7.80;3.60;;;19.00;99.90;;;;;;5011353;28;20026;-63
2021/06/03 02:06:49;;;;;;;5.10;3.50;;;18.90;99.90;;;;;;5014976;28;20029;-63
2021/06/03 02:09:15;;;;;;;4.90;3.47;;;18.90;99.90;;;;;;5014134;28;20414;-63
2021/06/03 02:11:44;;;;;;;4.13;2.97;;;18.80;99.90;;;;;;5014011;28;20113;-63
2021/06/03 02:14:13;;;;;;;4.97;3.40;;;18.70;99.90;;;;;;5014206;28;20034;-63
2021/06/03 02:16:58;;;;;;;4.97;3.38;;;18.70;99.90;;;;;;5015054;28;20084;-63
2021/06/03 02:19:35;;;;;;;4.80;3.63;;;18.70;99.90;;;;;;5015015;28;20092;-63
2021/06/03 02:22:03;;;;;;;3.50;3.20;;;18.70;99.90;;;;;;5015189;28;20092;-63
2021/06/03 02:24:29;;;;;;;4.63;3.58;;;18.60;99.90;;;;;;5013746;28;20026;-63
2021/06/03 02:26:56;;;;;;;5.45;3.17;;;18.60;99.90;;;;;;5014956;28;20018;-63
2021/06/03 02:29:22;;;;;;;3.97;3.33;;;18.60;99.90;;;;;;5014874;28;20068;-63
2021/06/03 02:31:48;;;;;;;4.90;3.10;;;18.50;99.90;;;;;;5014947;28;20376;-63
2021/06/03 02:34:14;;;;;;;4.10;3.50;;;18.50;99.90;;;;;;5014732;28;20049;-63
2021/06/03 02:36:42;;;;;;;4.97;3.00;;;18.50;99.90;;;;;;5014689;28;20088;-63
2021/06/03 02:39:08;;;;;;;3.80;2.95;;;18.50;99.90;;;;;;5014725;28;20036;-63
2021/06/03 02:41:34;;;;;;;4.40;3.10;;;18.50;99.90;;;;;;5014732;28;20105;-63
2021/06/03 02:44:00;;;;;;;5.82;3.22;;;18.40;99.90;;;;;;5013487;28;20037;-63
2021/06/03 02:46:26;;;;;;;5.03;2.92;;;18.40;99.90;;;;;;5014552;28;20049;-63
2021/06/03 02:48:52;;;;;;;5.22;3.25;;;18.40;99.90;;;;;;5013673;28;20068;-63
2021/06/03 02:51:20;;;;;;;5.50;3.38;;;18.40;99.90;;;;;;5014405;28;20025;-63
2021/06/03 02:53:46;;;;;;;4.75;2.88;;;18.40;99.90;;;;;;5029914;28;20028;-63
2021/06/03 02:56:13;;;;;;;4.38;3.40;;;18.40;99.90;;;;;;5014566;28;20026;-63
2021/06/03 02:58:39;;;;;;;5.68;3.03;;;18.40;99.90;;;;;;5014365;28;20120;-63
2021/06/03 03:01:05;;;;;;;3.25;2.95;;;18.40;99.90;;;;;;5013334;28;20113;-63
2021/06/03 03:03:31;;;;;;;4.82;3.60;;;18.30;99.90;;;;;;5014316;28;20014;-63
2021/06/03 03:05:57;;;;;;;3.60;2.70;;;18.30;99.90;;;;;;5014103;28;20021;-63
2021/06/03 03:08:25;;;;;;;6.28;3.30;;;18.20;99.90;;;;;;5014091;28;20475;-63
2021/06/03 03:10:56;;;;;;;5.30;3.35;;;18.20;99.90;;;;;;5014123;28;20044;-63
2021/06/03 03:13:21;;;;;;;;;;;18.20;99.90;;;;;;5014532;28;20022;-63
2021/06/03 03:15:48;;;;;;;5.70;3.63;;;18.20;99.90;;;;;;5014122;28;19916;-63
2021/06/03 03:18:13;;;;;;;6.05;3.15;;;18.20;99.90;;;;;;5012933;28;20037;-63
2021/06/03 03:20:39;;;;;;;4.07;3.00;;;18.20;99.90;;;;;;5012688;28;20435;-63
2021/06/03 03:23:07;;;;;;;4.18;2.75;;;18.10;99.90;;;;;;5013644;28;20112;-63
2021/06/03 03:25:34;;;;;;;4.25;3.42;;;18.10;99.90;;;;;;5013735;28;20124;-63
2021/06/03 03:28:04;;;;;;;2.97;2.60;;;18.00;99.90;;;;;;5013834;28;20050;-63
2021/06/03 03:30:32;;;;;;;3.40;3.10;;;18.00;99.90;;;;;;5013324;28;20033;-63
2021/06/03 03:32:58;;;;;;;4.57;3.15;;;18.00;99.90;;;;;;5013677;28;20129;-63
2021/06/03 03:35:24;;;;;;;6.82;3.20;;;18.00;99.90;;;;;;5013954;28;20045;-62
2021/06/03 03:37:52;;;;;;;6.78;3.20;;;18.00;99.90;;;;;;5013638;28;20030;-63
2021/06/03 03:40:20;;;;;;;3.35;3.05;;;18.00;99.90;;;;;;5013443;28;20044;-63
2021/06/03 03:42:50;;;;;;;4.43;2.80;;;17.90;99.90;;;;;;5028852;28;20474;-63
2021/06/03 03:45:21;;;;;;;4.50;3.25;;;17.90;99.90;;;;;;5028639;28;20034;-63
2021/06/03 03:47:48;;;;;;;5.45;3.22;;;17.80;99.90;;;;;;5029128;28;20415;-63
2021/06/03 03:50:16;;;;;;;4.43;3.00;;;17.90;99.90;;;;;;5013370;28;20418;-62
2021/06/03 03:52:45;;;;;;;4.45;2.95;;;17.90;99.90;;;;;;5013223;28;20125;-63
2021/06/03 03:55:13;;;;;;;5.18;4.03;;;17.80;99.90;;;;;;5012070;28;20030;-63
2021/06/03 03:57:39;;;;;;;5.53;3.08;;;17.80;99.90;;;;;;5013124;28;20080;-63
2021/06/03 04:00:11;;;;;;;4.28;2.95;;;17.80;99.90;;;;;;5011819;28;20029;-63
2021/06/03 04:02:37;;;;;;;3.78;2.78;;;17.90;99.90;;;;;;5011746;28;20041;-63
2021/06/03 04:05:03;;;;;;;4.60;3.35;;;17.90;99.90;;;;;;5012859;28;20026;-63
2021/06/03 04:07:29;;;;;;;7.45;3.22;;;18.00;99.90;;;;;;5013177;28;20033;-64
2021/06/03 04:09:55;;;;;;;5.70;2.90;;;18.00;99.90;;;;;;5012783;28;20081;-63
2021/06/03 04:12:21;;;;;;;3.05;2.75;;;18.10;99.90;;;;;;5012824;28;20026;-63
2021/06/03 04:14:46;;;;;;;3.30;2.88;;;18.10;99.90;;;;;;5011794;28;20445;-63
2021/06/03 04:17:12;;;;;;;3.13;2.83;;;18.20;99.90;;;;;;5012780;28;20021;-64
2021/06/03 04:19:38;;;;;;;6.35;2.83;;;18.20;99.90;;;;;;5012635;28;20026;-64
2021/06/03 04:22:04;;;;;;;3.90;3.40;;;18.20;99.90;;;;;;5011634;28;20118;-63
2021/06/03 04:24:29;;;;;;;3.65;2.75;;;18.30;99.90;;;;;;5012572;28;20398;-63
2021/06/03 04:27:00;;;;;;;3.70;2.97;;;18.20;99.90;;;;;;5012772;28;20029;-63
2021/06/03 04:29:25;;;;;;;9.10;3.97;;;18.20;99.90;;;;;;5012261;28;20017;-63
2021/06/03 04:31:51;;;;;;;4.28;2.83;;;18.30;99.90;;;;;;5011519;28;20030;-63
2021/06/03 04:34:16;;;;;;;5.85;2.85;;;18.30;99.90;;;;;;5012444;28;20080;-63
2021/06/03 04:36:42;;;;;;;4.00;2.58;;;18.40;99.90;;;;;;5012534;28;20041;-63
2021/06/03 04:39:08;;;;;;;3.67;3.08;;;18.50;99.90;;;;;;5012488;28;20033;-63
2021/06/03 04:41:34;;;;;;;2.90;2.63;;;18.60;99.90;;;;;;5012465;28;20101;-63
2021/06/03 04:44:02;;;;;;;3.40;2.45;;;18.70;99.90;;;;;;5012128;28;20030;-63
2021/06/03 04:46:28;;;;;;;4.35;2.90;;;18.80;99.90;;;;;;5012325;28;20064;-63
2021/06/03 04:48:54;;;;;;;4.60;2.80;;;18.90;99.90;;;;;;5001269;28;20054;-63
2021/06/03 04:51:24;;;;;;;3.30;3.00;;;19.10;99.90;;;;;;4992637;28;20321;-63
2021/06/03 04:53:50;;;;;;;3.05;2.75;;;19.20;99.90;;;;;;4993015;28;20050;-64
2021/06/03 04:56:15;;;;;;;4.28;2.85;;;19.30;99.90;;;;;;4992756;28;20050;-64
2021/06/03 04:58:43;;;;;;;3.70;2.70;;;19.40;99.90;;;;;;4992588;28;20026;-63
2021/06/03 05:01:09;;;;;;;3.28;2.22;;;19.50;99.90;;;;;;5007798;28;20026;-63
2021/06/03 05:03:35;;;;;;;3.90;2.80;;;19.60;99.90;;;;;;5012033;28;20117;-63
2021/06/03 05:06:01;;;;;;;5.70;2.50;;;19.60;99.90;;;;;;5011970;28;20112;-62
2021/06/03 05:08:29;;;;;;;3.17;2.83;;;19.70;99.90;;;;;;5012054;28;20029;-63
2021/06/03 05:10:54;;;;;;;3.22;2.80;;;19.80;99.90;;;;;;5012081;28;20022;-63
2021/06/03 05:13:22;;;;;;;3.75;2.60;;;19.90;99.90;;;;;;5012026;28;20030;-63
2021/06/03 05:15:48;;;;;;;3.63;2.40;;;19.90;99.90;;;;;;5011956;28;20127;-63
2021/06/03 05:18:16;;;;;;;3.10;2.65;;;19.90;99.90;;;;;;5012004;28;20105;-64
2021/06/03 05:20:42;;;;;;;3.55;2.53;;;19.80;99.90;;;;;;5011857;28;20109;-63
2021/06/03 05:23:10;;;;;;;3.30;3.00;;;19.80;99.90;;;;;;5011683;28;20133;-63
2021/06/03 05:25:35;;;;;;;2.85;2.60;;;19.90;99.90;;;;;;5011821;28;20533;-63
2021/06/03 05:28:02;;;;;;;3.13;2.85;;;20.00;99.90;;;;;;5011712;28;20034;-63
2021/06/03 05:30:28;;;;;;;3.10;2.58;;;20.10;99.90;;;;;;5011623;28;20404;-64
2021/06/03 05:32:54;;;;;;;3.63;2.70;;;20.20;99.90;;;;;;5010796;28;20030;-63
2021/06/03 05:35:22;;;;;;;3.70;2.83;;;20.20;99.90;;;;;;5011479;28;20347;-63
2021/06/03 05:37:48;;;;;;;3.30;2.63;;;20.30;99.90;;;;;;5011618;28;20029;-63
2021/06/03 05:40:17;;;;;;;2.42;2.20;;;20.30;99.90;;;;;;5012564;28;20029;-63
2021/06/03 05:42:43;;;;;;;4.35;3.22;;;20.30;99.90;;;;;;5015730;28;20030;-63
2021/06/03 05:45:10;;;;;;;3.47;3.03;;;20.20;99.90;;;;;;5015565;28;20022;-63
2021/06/03 05:47:36;;;;;;;4.85;2.70;;;20.20;99.90;;;;;;5015598;28;20566;-64
2021/06/03 05:50:08;;;;;;;6.43;2.60;;;20.30;99.90;;;;;;5015625;28;20029;-63
2021/06/03 05:52:34;;;;;;;3.45;2.58;;;20.30;99.90;;;;;;5015531;28;20105;-63
2021/06/03 05:54:59;;;;;;;3.45;2.80;;;20.20;99.90;;;;;;5014349;28;20442;-63
2021/06/03 05:57:25;;;;;;;3.75;2.72;;;20.20;99.90;;;;;;5015768;28;20032;-64
2021/06/03 05:59:51;;;;;;;2.80;2.60;;;20.30;99.90;;;;;;5015359;28;20033;-63
2021/06/03 06:02:22;;;;;;;5.03;2.50;;;20.40;99.90;;;;;;5015401;28;20087;-63
2021/06/03 06:07:35;;;;;;;3.67;2.30;;;20.60;99.90;;;;;;5015271;28;20045;-63
2021/06/03 06:10:00;;;;;;;2.92;2.55;;;20.70;99.90;;;;;;5015240;28;20352;-64
2021/06/03 06:12:26;;;;;;;2.78;2.42;;;20.90;99.90;;;;;;5015154;28;20028;-63
2021/06/03 06:14:52;;;;;;;2.97;2.67;;;20.90;99.90;;;;;;5015106;28;20112;-64
2021/06/03 06:17:18;;;;;;;3.00;2.30;;;21.10;99.90;;;;;;5015188;28;20383;-64
2021/06/03 06:19:44;;;;;;;6.00;2.88;;;21.30;99.90;;;;;;5014968;28;20022;-64
2021/06/03 06:22:15;;;;;;;3.38;2.47;;;21.40;99.90;;;;;;5013778;28;20140;-64
2021/06/03 06:24:45;;;;;;;3.53;2.78;;;21.50;99.90;;;;;;5014903;28;20357;-65
2021/06/03 06:27:11;;;;;;;4.93;3.10;;;21.90;99.90;;;;;;5015049;28;20308;-64
2021/06/03 06:29:37;;;;;;;2.95;2.75;;;22.30;99.90;;;;;;5014817;28;20036;-64
2021/06/03 06:32:03;;;;;;;4.32;2.47;;;22.60;99.90;;;;;;5015078;28;20026;-64
2021/06/03 06:34:29;;;;;;;3.67;2.50;;;22.70;99.90;;;;;;5014929;28;20335;-65
2021/06/03 06:36:57;;;;;;;6.55;2.80;;;22.30;99.90;;;;;;5015110;28;20029;-64
2021/06/03 06:39:24;;;;;;;3.83;2.80;;;22.10;99.90;;;;;;5014842;28;20116;-64
2021/06/03 06:41:52;;;;;;;3.38;2.92;;;21.80;99.90;;;;;;5014937;28;20034;-64
2021/06/03 06:44:20;;;;;;;4.13;2.95;;;21.40;99.90;;;;;;5014781;28;20053;-64
2021/06/03 06:46:51;;;;;;;4.10;2.88;;;21.50;99.90;;;;;;5013903;28;20458;-64
2021/06/03 06:49:16;;;;;;;4.43;2.90;;;21.60;99.90;;;;;;5014827;28;20177;-64
2021/06/03 06:51:42;;;;;;;4.60;3.22;;;21.50;99.90;;;;;;5014912;28;20466;-64
2021/06/03 06:54:07;;;;;;;4.93;3.80;;;21.40;99.90;;;;;;5014792;28;20029;-64
2021/06/03 06:56:33;;;;;;;5.65;3.38;;;21.30;99.90;;;;;;5015022;28;20094;-63
2021/06/03 06:58:59;;;;;;;3.85;3.00;;;21.20;99.90;;;;;;5014640;28;20046;-64
2021/06/03 07:01:27;;;;;;;3.95;3.00;;;21.20;99.90;;;;;;5014637;28;20077;-63
2021/06/03 07:03:53;;;;;;;3.03;2.72;;;21.30;99.90;;;;;;5014585;28;20044;-64
2021/06/03 07:06:20;;;;;;;5.13;3.58;;;21.20;99.90;;;;;;5014470;28;20026;-63
2021/06/03 07:08:46;;;;;;;5.13;3.15;;;21.10;99.90;;;;;;5013624;28;20371;-64
2021/06/03 07:11:11;;;;;;;3.97;3.58;;;20.80;99.90;;;;;;5014393;28;20109;-64
2021/06/03 07:13:37;;;;;;;4.00;3.22;;;20.70;99.90;;;;;;5013516;28;20021;-66
2021/06/03 07:16:03;;;;;;;5.32;3.83;;;20.60;99.90;;;;;;5013528;28;20036;-64
2021/06/03 07:18:28;;;;;;;6.05;3.53;;;20.60;99.90;;;;;;5014435;28;20044;-64
2021/06/03 07:20:54;;;;;;;6.72;3.67;;;20.70;99.90;;;;;;5014191;28;20212;-64
2021/06/03 07:23:21;;;;;;;5.35;3.13;;;20.90;99.90;;;;;;5013032;28;20139;-64
2021/06/03 07:25:46;;;;;;;3.45;3.15;;;20.90;99.90;;;;;;5013990;28;20430;-63
2021/06/03 07:28:12;;;;;;;3.55;3.25;;;20.90;99.90;;;;;;5014381;28;20060;-65
2021/06/03 07:30:41;;;;;;;4.30;3.63;;;20.80;99.90;;;;;;5014698;28;20037;-63
2021/06/03 07:33:07;;;;;;;6.90;3.65;;;21.00;99.90;;;;;;5014215;28;20026;-63
2021/06/03 07:35:35;;;;;;;3.40;3.10;;;21.10;99.90;;;;;;5013807;28;20113;-63
2021/06/03 07:38:01;;;;;;;5.10;4.10;;;21.30;99.90;;;;;;5012879;28;20488;-64
2021/06/03 07:40:33;;;;;;;4.47;3.53;;;21.50;99.90;;;;;;5013846;28;20037;-63
2021/06/03 07:42:59;;;;;;;5.28;3.40;;;21.40;99.90;;;;;;5013884;28;20109;-63
2021/06/03 07:45:27;;;;;;;4.07;3.30;;;21.30;99.90;;;;;;5013632;28;20041;-64
2021/06/03 07:47:56;;;;;;;4.65;3.63;;;21.00;99.90;;;;;;5013740;28;20030;-65
2021/06/03 07:50:22;;;;;;;4.70;3.70;;;20.90;99.90;;;;;;5013664;28;20439;-64
2021/06/03 07:52:47;;;;;;;4.15;3.67;;;21.10;99.90;;;;;;5013637;28;20100;-63
2021/06/03 07:55:16;;;;;;;5.75;3.28;;;21.20;99.90;;;;;;5013440;28;20117;-64
2021/06/03 07:57:43;;;;;;;5.63;3.45;;;21.30;99.90;;;;;;5013466;28;20101;-65
2021/06/03 08:00:11;;;;;;;4.22;3.53;;;21.30;99.90;;;;;;5013332;28;20117;-65
2021/06/03 08:02:38;;;;;;;6.70;4.10;;;21.10;99.90;;;;;;5013054;28;20346;-63
2021/06/03 08:05:04;;;;;;;9.60;5.38;;;20.60;99.90;;;;;;5013338;28;20443;-65
2021/06/03 08:07:30;;;;;;;8.55;5.03;;;20.20;99.90;;;;;;5013169;28;20061;-65
2021/06/03 08:09:56;;;;;;;7.22;5.47;;;19.80;99.90;;;;;;5013357;28;20033;-64
2021/06/03 08:12:22;;;;;;;11.00;5.30;;;19.60;99.90;;;;;;5013807;28;20038;-65
2021/06/03 08:14:50;;;;;;;8.35;5.85;;;19.60;99.90;;;;;;5013546;28;20026;-65
2021/06/03 08:17:15;;;;;;;8.15;5.75;;;19.60;99.90;;;;;;5013191;28;20040;-65
2021/06/03 08:19:43;;;;;;;7.85;6.18;;;19.70;99.90;;;;;;5011923;28;20025;-65
2021/06/03 08:22:09;;;;;;;8.93;6.60;;;19.70;99.90;;;;;;5028287;28;20045;-65
2021/06/03 08:24:34;;;;;;;9.15;5.90;;;19.90;99.90;;;;;;5012789;28;20505;-66
2021/06/03 08:27:00;;;;;;;14.32;6.95;;;20.30;99.90;;;;;;5013001;28;20477;-65
2021/06/03 08:29:25;;;;;;;9.93;6.57;;;20.60;99.90;;;;;;5013176;28;20105;-65
2021/06/03 08:31:52;;;;;;;6.95;5.95;;;20.80;99.90;;;;;;5012829;28;20033;-66
2021/06/03 08:34:20;;;;;;;8.57;6.18;;;20.90;99.90;;;;;;5011906;28;20323;-64
2021/06/03 08:36:46;;;;;;;12.10;7.60;;;21.00;99.90;;;;;;5012760;28;20041;-64
2021/06/03 08:39:11;;;;;;;7.32;6.18;;;21.20;99.90;;;;;;5012910;28;20034;-65
2021/06/03 08:41:40;;;;;;;7.53;5.43;;;21.30;99.90;;;;;;5012873;28;20151;-65
2021/06/03 08:44:07;;;;;;;9.07;6.22;;;21.40;99.90;;;;;;5012486;28;20022;-65
2021/06/03 08:46:34;;;;;;;7.68;6.38;;;21.40;99.90;;;;;;5012624;28;20057;-65
2021/06/03 08:49:07;;;;;;;9.55;6.25;;;21.30;99.90;;;;;;5012577;28;20037;-64
2021/06/03 08:51:33;;;;;;;10.40;5.60;;;21.30;99.90;;;;;;5012600;28;20022;-65
2021/06/03 08:53:59;;;;;;;8.13;5.50;;;21.30;99.90;;;;;;5012531;28;20018;-65
2021/06/03 08:56:26;;;;;;;7.90;5.60;;;21.20;99.90;;;;;;5012473;28;20022;-65
2021/06/03 08:58:59;;;;;;;9.30;6.55;;;21.10;99.90;;;;;;5012410;28;20489;-65
2021/06/03 09:01:29;;;;;;;10.15;6.00;;;21.00;99.90;;;;;;5013951;28;20041;-66
2021/06/03 09:03:55;;;;;;;8.40;6.45;;;20.90;99.90;;;;;;5012391;28;20366;-66
2021/06/03 09:06:21;;;;;;;12.05;8.27;;;20.70;99.90;;;;;;5012357;28;20389;-67
2021/06/03 09:08:57;;;;;;;13.00;8.25;;;20.50;99.90;;;;;;5012594;28;20034;-66
2021/06/03 09:11:26;;;;;;;17.25;10.15;;;20.30;99.90;;;;;;5012406;28;20087;-67
2021/06/03 09:13:57;;;;;;;13.95;10.35;;;20.10;99.90;;;;;;5012421;28;20037;-65
2021/06/03 09:16:30;;;;;;;12.98;10.40;;;20.00;99.90;;;;;;5011853;28;20037;-66
2021/06/03 09:18:59;;;;;;;11.43;9.15;;;19.90;99.90;;;;;;5012373;28;20037;-67
2021/06/03 09:21:28;;;;;;;14.57;9.75;;;19.90;99.90;;;;;;5012171;28;20095;-67
2021/06/03 09:24:05;;;;;;;14.85;9.30;;;19.80;99.90;;;;;;5011090;28;20045;-66
2021/06/03 09:26:44;;;;;;;12.15;8.73;;;19.90;99.90;;;;;;5012265;28;20089;-67
2021/06/03 09:29:10;;;;;;;13.23;9.00;;;19.90;99.90;;;;;;5011900;28;20371;-66
2021/06/03 09:31:36;;;;;;;12.98;9.40;;;19.90;99.90;;;;;;5012112;28;20022;-66
2021/06/03 09:34:22;;;;;;;17.25;11.65;;;19.90;99.90;;;;;;5012063;28;20026;-66
2021/06/03 09:36:58;;;;;;;13.98;9.27;;;20.10;99.90;;;;;;5011925;28;20057;-67
2021/06/03 09:39:36;;;;;;;13.80;8.75;;;20.20;99.90;;;;;;5012283;28;20037;-66
2021/06/03 09:42:15;;;;;;;12.95;9.68;;;20.10;99.90;;;;;;5012025;28;20033;-67
2021/06/03 09:44:55;;;;;;;8.95;7.00;;;20.00;99.90;;;;;;5010782;28;20063;-66
2021/06/03 09:47:24;;;;;;;10.60;7.93;;;20.10;99.90;;;;;;5011984;28;20025;-65
2021/06/03 09:49:52;;;;;;;11.07;7.57;;;20.20;99.90;;;;;;5028811;28;20025;-66
2021/06/03 09:52:22;;;;;;;10.90;7.90;;;20.30;99.90;;;;;;5031521;28;20017;-66
2021/06/03 09:54:53;;;;;;;11.70;8.05;;;20.60;99.90;;;;;;5031381;28;20070;-66
2021/06/03 09:57:20;;;;;;;11.15;8.32;;;20.80;99.90;;;;;;5031600;28;20030;-66
2021/06/03 09:59:56;;;;;;;12.50;9.07;;;20.90;99.90;;;;;;5027773;28;20052;-66
2021/06/03 10:02:22;;;;;;;13.55;9.65;;;21.30;99.90;;;;;;5011917;28;20022;-66
2021/06/03 10:04:53;;;;;;;13.10;8.50;;;21.20;99.90;;;;;;5012148;28;20053;-67
2021/06/03 10:07:24;;;;;;;11.35;7.25;;;21.10;99.90;;;;;;5011815;28;20018;-67
2021/06/03 10:10:10;;;;;;;9.98;6.80;;;20.90;99.90;;;;;;5011657;28;20455;-66
2021/06/03 10:12:48;;;;;;;7.88;6.47;;;20.90;99.90;;;;;;5012049;28;20053;-67
2021/06/03 10:15:20;;;;;;;12.25;6.40;;;20.80;99.90;;;;;;5011554;28;20018;-67
2021/06/03 10:17:54;;;;;;;10.95;6.80;;;20.80;99.90;;;;;;5011760;28;20022;-67
2021/06/03 10:20:23;;;;;;;8.68;7.03;;;20.80;99.90;;;;;;5011731;28;20052;-67
2021/06/03 10:22:52;;;;;;;8.77;6.78;;;20.90;99.90;;;;;;5010612;28;20189;-67
2021/06/03 10:25:19;;;;;;;8.25;6.13;;;21.10;99.90;;;;;;5011502;28;20030;-65
2021/06/03 10:27:48;;;;;;;9.10;6.90;;;21.10;99.90;;;;;;5014963;28;20024;-69
2021/06/03 10:30:26;;;;;;;15.25;5.90;;;21.10;99.90;;;;;;5015162;28;20105;-68
2021/06/03 10:32:55;;;;;;;7.25;5.22;;;21.00;99.90;;;;;;5015237;28;20041;-67
2021/06/03 10:35:28;;;;;;;8.35;5.18;;;20.90;99.90;;;;;;5015107;28;20030;-67
2021/06/03 10:37:54;;;;;;;8.45;5.38;;;20.90;99.90;;;;;;5015147;28;20100;-67
2021/06/03 10:40:28;;;;;;;11.13;6.25;;;21.20;99.90;;;;;;5015008;28;20034;-68
2021/06/03 10:42:54;;;;;;;6.93;5.05;;;21.30;99.90;;;;;;5013946;28;20033;-67
2021/06/03 10:45:22;;;;;;;7.75;4.47;;;21.40;99.90;;;;;;5014826;28;20404;-67
2021/06/03 10:47:51;;;;;;;7.45;5.20;;;21.40;99.90;;;;;;5014963;28;20543;-68
2021/06/03 10:50:22;;;;;;;9.43;5.60;;;21.50;99.90;;;;;;5014858;28;20106;-68
2021/06/03 10:52:49;;;;;;;5.35;4.22;;;21.60;99.90;;;;;;5014825;28;20071;-67
2021/06/03 10:55:34;;;;;;;5.25;4.13;;;21.60;99.90;;;;;;5014604;28;20355;-67
2021/06/03 10:58:01;;;;;;;4.97;3.63;;;21.70;99.90;;;;;;5014704;28;20442;-67
2021/06/03 11:00:37;;;;;;;6.32;4.47;;;21.90;99.90;;;;;;5014719;28;20340;-67
2021/06/03 11:03:21;;;;;;;7.20;4.25;;;22.10;99.90;;;;;;5014709;28;20032;-67
2021/06/03 11:06:00;;;;;;;6.53;4.47;;;21.90;99.90;;;;;;5014796;28;20121;-67
2021/06/03 11:08:31;;;;;;;7.25;5.05;;;21.70;99.90;;;;;;5014555;28;20129;-67
2021/06/03 11:11:09;;;;;;;7.70;5.18;;;21.70;99.90;;;;;;5014598;28;20018;-68
2021/06/03 11:13:36;;;;;;;5.78;4.55;;;21.70;99.90;;;;;;5014434;28;20057;-67
2021/06/03 11:16:02;;;;;;;8.93;5.18;;;21.80;99.90;;;;;;5014252;28;20041;-67
2021/06/03 11:18:52;;;;;;;9.30;6.25;;;21.80;99.90;;;;;;5013408;28;20029;-67
2021/06/03 11:21:38;;;;;;;8.52;6.03;;;21.70;99.90;;;;;;5014201;28;20458;-67
2021/06/03 11:24:08;;;;;;;10.02;5.43;;;21.80;99.90;;;;;;5013994;28;20042;-65
2021/06/03 11:26:49;;;;;;;7.35;5.43;;;21.90;99.90;;;;;;5013086;28;20492;-65
2021/06/03 11:29:24;;;;;;;5.90;5.15;;;22.10;99.90;;;;;;5014358;28;20121;-65
2021/06/03 11:32:13;;;;;;;8.68;5.38;;;22.40;99.90;;;;;;5008300;28;20053;-74
2021/06/03 11:34:38;;;;;;;7.15;4.93;;;22.80;99.90;;;;;;4988220;28;20486;-73
2021/06/03 11:37:09;;;;;;;7.50;4.72;;;23.10;99.90;;;;;;4994542;28;20058;-73
2021/06/03 11:39:37;;;;;;;;;;;23.10;99.90;;;;;;4994609;28;20054;-73
2021/06/03 11:42:15;;;;;;;6.25;4.97;;;23.20;99.90;;;;;;4994996;28;19916;-73
2021/06/03 11:45:02;;;;;;;9.05;5.50;;;23.10;99.90;;;;;;4994447;28;20105;-73
2021/06/03 11:47:56;;;;;;;8.45;4.50;;;23.20;99.90;;;;;;5010843;28;20451;-74
2021/06/03 11:50:22;;;;;;;6.03;4.18;;;23.60;99.90;;;;;;4993894;28;20023;-75
2021/06/03 11:52:56;;;;;;;6.25;4.03;;;24.00;99.90;;;;;;4994016;28;20092;-74
2021/06/03 11:55:47;;;;;;;7.00;4.15;;;24.40;99.90;;;;;;4994108;28;20095;-74
2021/06/03 11:58:24;;;;;;;6.50;4.03;;;24.50;99.90;;;;;;4993696;28;20037;-74
2021/06/03 12:00:52;;;;;;;5.55;3.78;;;24.60;99.90;;;;;;4998985;28;20278;-74
2021/06/03 12:03:42;;;;;;;5.70;4.20;;;24.80;99.90;;;;;;5013140;28;20119;-75
2021/06/03 12:06:33;;;;;;;5.22;3.20;;;25.20;99.90;;;;;;5012122;28;20159;-74
2021/06/03 12:09:02;;;;;;;4.38;3.53;;;25.60;99.90;;;;;;5013086;28;20213;-73
2021/06/03 12:11:33;;;;;;;4.80;3.95;;;26.10;99.90;;;;;;5013096;28;20083;-73
2021/06/03 12:14:13;;;;;;;4.32;3.92;;;26.20;99.90;;;;;;5011848;28;20026;-74
2021/06/03 12:16:49;;;;;;;4.78;3.72;;;26.90;99.90;;;;;;5016797;28;20056;-74
2021/06/03 12:19:21;;;;;;;5.00;3.65;;;27.80;99.90;;;;;;5032906;28;20030;-74
2021/06/03 12:21:50;;;;;;;6.13;4.13;;;;;;;;;;5032480;28;20053;-74
2021/06/03 12:24:16;;;;;;;4.38;3.35;;;;;;;;;;5032356;28;20025;-74
2021/06/03 12:26:42;;;;;;;4.10;3.67;;;;;;;;;;5032372;28;20361;-74
2021/06/03 12:29:28;;;;;;;5.00;3.50;;;;;;;;;;5032346;28;20025;-74
2021/06/03 12:31:54;;;;;;;5.85;3.42;;;;;;;;;;5018294;28;20060;-74
2021/06/03 12:34:21;;;;;;;4.55;3.42;;;;;;;;;;5012636;28;20041;-74
2021/06/03 12:36:50;;;;;;;3.95;3.05;;;;;;;;;;5012575;28;20130;-74
2021/06/03 12:39:16;;;;;;;7.38;3.70;;;;;;;;;;5012571;28;20022;-74
2021/06/03 12:41:43;;;;;;;5.53;3.88;;;;;;;;;;5012364;28;20113;-74
2021/06/03 12:44:16;;;;;;;4.32;3.50;;;;;;;;;;5012371;28;20085;-74
2021/06/03 12:47:00;;;;;;;3.55;3.13;;;;;;;;;;5011272;28;20026;-75
2021/06/03 12:49:27;;;;;;;6.30;4.00;;;;;;;;;;5012113;28;20026;-74
2021/06/03 12:52:01;;;;;;;5.60;4.22;;;;;;;;;;5012413;28;20025;-75
2021/06/03 12:54:30;;;;;;;4.78;3.88;;;;;;;;;;5011281;28;20057;-75
2021/06/03 12:56:58;;;;;;;5.53;3.38;;;;;;;;;;5012563;28;20026;-75
2021/06/03 12:59:28;;;;;;;4.80;3.28;;;;;;;;;;5012301;28;20036;-74
2021/06/03 13:01:59;;;;;;;4.80;3.95;;;;;;;;;;5012442;28;20026;-75
2021/06/03 13:04:42;;;;;;;3.65;3.35;;;;;;;;;;5012005;28;20542;-74
2021/06/03 13:07:09;;;;;;;4.65;3.67;;;;;;;;;;5011907;28;20107;-74